Time;durP1;ratioP1;P1;durP2;ratioP2;P2;SDS_P1;SDS_P2;PMS_P1;PMS_P2;Temp;Humidity;BMP_temperature;BMP_pressure;BME280_temperature;BME280_humidity;BME280_pressure;Samples;Min_cycle;Max_cycle;Signal;HPM_P1;HPM_P2
2021/09/14 00:00:21;;;;;;;6.03;3.03;;;;;;;23.32;56.69;100592.75;5058350;28;20053;-62
2021/09/14 00:02:49;;;;;;;6.78;2.97;;;;;;;22.98;57.11;100589.50;5056819;28;20655;-62
2021/09/14 00:05:17;;;;;;;6.43;3.03;;;;;;;22.88;57.52;100592.31;5055106;28;20060;-62
2021/09/14 00:07:44;;;;;;;5.43;2.95;;;;;;;23.15;56.78;100601.97;5056410;28;20053;-64
2021/09/14 00:10:11;;;;;;;5.15;2.58;;;;;;;23.01;57.46;100608.38;5056393;28;20037;-66
2021/09/14 00:12:39;;;;;;;5.05;3.03;;;;;;;23.04;57.69;100606.78;5059923;28;20067;-66
2021/09/14 00:15:08;;;;;;;6.15;3.13;;;;;;;23.18;56.93;100606.78;5061106;28;20060;-66
2021/09/14 00:17:36;;;;;;;8.23;3.00;;;;;;;23.29;56.89;100602.78;5058222;28;20049;-66
2021/09/14 00:20:05;;;;;;;8.23;3.22;;;;;;;22.62;58.38;100606.69;5055609;28;20058;-66
2021/09/14 00:22:32;;;;;;;7.25;2.90;;;;;;;22.65;58.69;100603.09;5058350;28;20057;-62
2021/09/14 00:24:59;;;;;;;7.60;3.17;;;;;;;23.01;58.00;100590.72;5055998;28;20048;-62
2021/09/14 00:27:26;;;;;;;5.35;2.90;;;;;;;23.00;58.12;100589.91;5056550;28;20053;-62
2021/09/14 00:29:54;;;;;;;5.68;2.90;;;;;;;23.05;57.98;100597.13;5057238;28;20496;-62
2021/09/14 00:32:21;;;;;;;7.80;3.20;;;;;;;22.99;58.04;100598.75;5072977;28;20053;-62
2021/09/14 00:34:48;;;;;;;7.00;2.95;;;;;;;23.19;57.70;100600.75;5057658;28;20061;-62
2021/09/14 00:37:15;;;;;;;6.35;3.13;;;;;;;23.01;57.92;100594.31;5056865;28;20064;-62
2021/09/14 00:39:43;;;;;;;7.38;3.22;;;;;;;23.06;58.04;100599.56;5057787;28;20392;-61
2021/09/14 00:42:10;;;;;;;6.95;2.75;;;;;;;23.22;57.55;100587.91;5055687;28;20057;-62
2021/09/14 00:44:38;;;;;;;4.97;2.70;;;;;;;23.01;58.32;100594.31;5057627;28;20060;-62
2021/09/14 00:47:05;;;;;;;5.55;2.70;;;;;;;22.93;58.23;100592.72;5055474;28;20479;-62
2021/09/14 00:49:32;;;;;;;7.97;3.20;;;;;;;22.94;58.54;100599.97;5056254;28;20052;-62
2021/09/14 00:52:00;;;;;;;5.50;2.92;;;;;;;23.04;58.25;100593.53;5057000;28;20045;-62
2021/09/14 00:54:27;;;;;;;6.53;3.10;;;;;;;23.04;58.25;100587.91;5057439;28;20492;-61
2021/09/14 00:56:58;;;;;;;7.65;4.10;;;;;;;22.88;58.21;100587.50;5038952;28;20049;-62
2021/09/14 00:59:25;;;;;;;8.02;5.45;;;;;;;22.85;58.74;100587.50;5056684;28;20072;-61
2021/09/14 01:01:54;;;;;;;11.13;6.55;;;;;;;22.78;59.00;100605.13;5039429;28;20511;-65
2021/09/14 01:04:22;;;;;;;7.63;4.25;;;;;;;22.92;58.58;100607.97;5055302;28;20064;-66
2021/09/14 01:06:49;;;;;;;6.70;3.72;;;;;;;22.75;59.17;100608.72;5039017;28;20069;-68
2021/09/14 01:09:16;;;;;;;5.72;3.35;;;;;;;22.77;58.92;100609.13;5038093;28;20068;-66
2021/09/14 01:11:44;;;;;;;7.30;3.60;;;;;;;22.84;59.07;100602.75;5057453;28;20052;-65
2021/09/14 01:14:20;;;;;;;5.30;2.97;;;;;;;22.74;59.49;100603.50;5040316;28;20072;-64
2021/09/14 01:16:48;;;;;;;4.97;2.95;;;;;;;22.80;59.10;100601.94;5022832;28;20070;-60
2021/09/14 01:19:15;;;;;;;5.28;3.25;;;;;;;22.98;58.72;100614.00;5056123;28;20464;-61
2021/09/14 01:21:43;;;;;;;5.18;3.33;;;;;;;23.00;58.48;100606.75;5055860;28;20059;-61
2021/09/14 01:24:13;;;;;;;7.50;3.28;;;;;;;22.87;58.85;100616.78;5055170;28;20600;-61
2021/09/14 01:26:46;;;;;;;5.07;3.08;;;;;;;22.71;59.49;100612.75;5056613;28;20053;-61
2021/09/14 01:32:04;;;;;;;5.95;3.17;;;;;;;22.71;59.65;100618.34;5052020;28;20520;-62
2021/09/14 01:34:33;;;;;;;4.30;2.77;;;;;;;22.83;59.31;100623.59;5051862;28;20049;-61
2021/09/14 01:37:02;;;;;;;7.32;3.20;;;;;;;22.74;59.48;100626.78;5051469;28;20652;-62
2021/09/14 01:39:32;;;;;;;6.53;3.03;;;;;;;22.89;59.47;100631.22;5052085;28;20045;-62
2021/09/14 01:42:00;;;;;;;4.43;3.20;;;;;;;22.88;59.18;100638.06;5050618;28;20071;-61
2021/09/14 01:44:28;;;;;;;6.43;3.10;;;;;;;22.94;59.33;100649.72;5036852;28;20046;-61
2021/09/14 01:46:55;;;;;;;6.43;3.20;;;;;;;22.93;59.03;100660.13;5051294;28;20049;-61
2021/09/14 01:49:22;;;;;;;6.70;3.42;;;;;;;23.03;58.96;100653.72;5054406;28;20056;-61
2021/09/14 01:51:49;;;;;;;5.28;2.90;;;;;;;22.99;59.29;100674.59;5054493;28;20116;-61
2021/09/14 01:54:17;;;;;;;5.05;3.10;;;;;;;23.01;59.18;100669.41;5055045;28;20057;-62
2021/09/14 01:56:44;;;;;;;4.68;3.25;;;;;;;22.95;59.19;100674.59;5055689;28;20048;-61
2021/09/14 01:59:13;;;;;;;6.57;3.03;;;;;;;22.86;59.78;100678.97;5054133;28;20097;-61
2021/09/14 02:01:50;;;;;;;6.57;3.35;;;;;;;22.83;59.56;100674.16;5054097;28;20463;-61
2021/09/14 02:04:31;;;;;;;8.00;3.38;;;;;;;22.74;60.21;100674.53;5054299;28;20057;-60
2021/09/14 02:59:41;;;;;;;8.13;4.30;;;;;;;21.73;64.20;100565.38;5070346;28;20064;-66
2021/09/14 03:02:09;;;;;;;9.98;4.13;;;;;;;21.55;65.21;100576.47;5069386;28;20060;-66
2021/09/14 03:04:37;;;;;;;8.40;4.10;;;;;;;21.73;64.81;100568.19;5053838;28;20041;-66
2021/09/14 03:07:04;;;;;;;9.38;3.80;;;;;;;21.71;65.30;100545.34;5052759;28;20060;-65
2021/09/14 03:09:36;;;;;;;8.75;3.75;;;;;;;21.82;64.94;100555.47;5070347;28;20052;-66
2021/09/14 03:12:06;;;;;;;7.93;3.90;;;;;;;22.13;64.22;100560.41;5052473;28;20053;-66
2021/09/14 03:14:35;;;;;;;8.20;3.67;;;;;;;22.17;63.97;100569.66;5056633;28;20049;-66
2021/09/14 03:17:03;;;;;;;6.22;3.65;;;;;;;22.30;63.17;100562.47;5072852;28;20058;-61
2021/09/14 03:19:31;;;;;;;6.93;3.75;;;;;;;22.41;62.57;100572.91;5069931;28;20434;-61
2021/09/14 03:22:00;;;;;;;7.40;3.78;;;;;;;22.42;62.98;100568.91;5052554;28;20084;-65
2021/09/14 03:24:27;;;;;;;7.63;3.83;;;;;;;22.50;62.54;100562.13;5053420;28;20091;-65
2021/09/14 03:26:58;;;;;;;6.32;3.55;;;;;;;22.36;62.46;100565.69;5052876;28;20044;-65
2021/09/14 03:29:26;;;;;;;9.05;3.30;;;;;;;22.51;62.43;100564.53;5048585;28;20418;-67
2021/09/14 03:31:54;;;;;;;8.35;3.75;;;;;;;22.56;62.60;100557.75;5033831;28;20053;-65
2021/09/14 03:34:21;;;;;;;9.50;3.88;;;;;;;22.59;62.63;100545.72;5049546;28;20058;-65
2021/09/14 03:36:50;;;;;;;7.60;3.88;;;;;;;22.45;63.40;100542.84;5036024;28;20530;-66
2021/09/14 03:39:17;;;;;;;6.28;3.92;;;;;;;22.54;63.05;100541.31;5052302;28;20496;-66
2021/09/14 03:41:47;;;;;;;6.90;3.70;;;;;;;22.38;64.00;100538.03;5052989;28;20041;-65
2021/09/14 03:44:16;;;;;;;6.82;3.67;;;;;;;22.33;64.15;100532.81;5052237;28;20055;-65
2021/09/14 03:46:43;;;;;;;8.95;4.25;;;;;;;22.55;63.70;100528.06;5036554;28;20049;-66
2021/09/14 03:49:11;;;;;;;7.30;3.83;;;;;;;22.56;63.45;100521.25;5052349;28;20049;-65
2021/09/14 03:51:40;;;;;;;9.47;3.93;;;;;;;22.37;63.80;100516.75;5052587;28;20041;-65
2021/09/14 03:54:08;;;;;;;6.78;4.00;;;;;;;22.54;63.54;100523.63;5052588;28;20228;-65
2021/09/14 03:56:36;;;;;;;9.07;4.10;;;;;;;22.55;63.14;100517.66;5052024;28;20053;-65
2021/09/14 03:59:04;;;;;;;9.13;4.18;;;;;;;22.53;63.27;100516.38;5054143;28;20052;-65
2021/09/14 04:01:38;;;;;;;10.38;4.30;;;;;;;22.57;63.13;100523.66;5052262;28;20064;-65
2021/09/14 04:04:15;;;;;;;10.77;4.07;;;;;;;22.49;63.66;100513.56;5052852;28;20057;-66
2021/09/14 04:09:20;;;;;;;6.47;3.38;;;;;;;22.64;63.26;100512.44;5052175;28;20053;-65
2021/09/14 04:11:53;;;;;;;6.65;3.70;;;;;;;22.73;63.24;100521.28;5051978;28;20508;-65
2021/09/14 04:14:25;;;;;;;6.90;3.70;;;;;;;22.55;63.73;100522.44;5065498;28;20059;-65
2021/09/14 04:16:53;;;;;;;8.00;3.95;;;;;;;22.55;64.28;100534.50;5048754;28;20405;-65
2021/09/14 04:19:21;;;;;;;7.65;4.20;;;;;;;22.60;63.88;100534.09;5032811;28;20647;-66
2021/09/14 04:21:50;;;;;;;6.00;3.85;;;;;;;22.49;64.60;100538.84;5015385;28;20054;-65
2021/09/14 04:24:22;;;;;;;7.75;4.85;;;;;;;22.24;66.09;100544.41;5034297;28;20054;-65
2021/09/14 04:26:49;;;;;;;10.65;4.65;;;;;;;22.39;65.26;100539.63;5031946;28;20058;-65
2021/09/14 04:29:17;;;;;;;7.82;4.65;;;;;;;22.51;65.01;100530.84;5047846;28;20522;-66
2021/09/14 04:31:44;;;;;;;7.82;4.38;;;;;;;22.27;66.31;100517.56;5068327;28;20049;-66
2021/09/14 04:34:11;;;;;;;8.95;4.63;;;;;;;22.33;65.82;100510.38;5052621;28;20157;-66
2021/09/14 04:36:39;;;;;;;7.68;4.60;;;;;;;22.26;66.80;100482.28;5051924;28;20056;-64
2021/09/14 04:39:10;;;;;;;8.43;5.32;;;;;;;21.67;70.29;100464.00;5052032;28;20053;-62
2021/09/14 04:41:39;;;;;;;10.57;6.13;;;;;;;21.47;71.62;100431.91;5048672;28;20041;-62
2021/09/14 04:44:07;;;;;;;12.02;6.25;;;;;;;21.16;73.82;100424.13;5050375;28;20045;-62
2021/09/14 04:46:35;;;;;;;12.02;6.95;;;;;;;21.07;73.72;100401.28;5053496;28;20061;-61
2021/09/14 04:49:04;;;;;;;15.27;6.50;;;;;;;21.22;73.96;100402.94;5052356;28;20124;-63
2021/09/14 04:51:32;;;;;;;10.57;5.90;;;;;;;21.37;71.89;100415.84;5052577;28;20049;-61
2021/09/14 04:54:00;;;;;;;9.23;5.07;;;;;;;21.60;71.74;100415.53;5052266;28;20065;-61
2021/09/14 04:56:27;;;;;;;9.88;5.65;;;;;;;21.80;70.36;100426.06;5070487;28;20063;-62
2021/09/14 04:58:55;;;;;;;10.80;5.53;;;;;;;22.01;69.34;100434.53;5066232;28;20057;-61
2021/09/14 05:01:23;;;;;;;8.82;4.90;;;;;;;21.98;69.43;100428.91;5041854;28;20048;-61
2021/09/14 05:03:50;;;;;;;11.35;5.18;;;;;;;22.13;68.51;100428.53;5055659;28;20055;-62
2021/09/14 05:06:17;;;;;;;14.05;5.97;;;;;;;22.08;69.32;100423.31;5055671;28;20056;-62
2021/09/14 05:08:45;;;;;;;10.10;5.78;;;;;;;22.13;69.26;100442.56;5056011;28;20049;-62
2021/09/14 05:11:14;;;;;;;13.93;6.70;;;;;;;21.55;72.46;100450.34;5055117;28;20041;-62
2021/09/14 05:13:42;;;;;;;11.15;5.53;;;;;;;21.70;71.26;100462.44;5051345;28;20060;-62
2021/09/14 05:16:09;;;;;;;11.15;6.20;;;;;;;21.63;72.05;100465.22;5063453;28;20041;-62
2021/09/14 05:18:54;;;;;;;8.88;5.80;;;;;;;21.50;72.34;100472.34;5055817;28;20631;-61
2021/09/14 05:21:22;;;;;;;12.02;6.65;;;;;;;21.27;73.91;100478.22;5054916;28;20049;-62
2021/09/14 05:23:49;;;;;;;10.70;6.63;;;;;;;21.23;73.65;100495.00;5055854;28;20376;-62
2021/09/14 05:26:21;;;;;;;12.20;6.45;;;;;;;21.36;73.55;100489.88;5054824;28;20449;-64
2021/09/14 05:28:48;;;;;;;9.88;6.88;;;;;;;21.07;75.24;100485.31;5056560;28;20057;-61
2021/09/14 05:31:16;;;;;;;9.73;6.78;;;;;;;20.77;76.64;100493.03;5054887;28;20049;-62
2021/09/14 05:33:45;;;;;;;9.80;6.20;;;;;;;21.05;74.92;100488.50;5044549;28;20053;-63
2021/09/14 05:36:13;;;;;;;11.02;6.38;;;;;;;21.32;73.80;100500.28;5041385;28;20384;-63
2021/09/14 05:38:41;;;;;;;12.10;6.40;;;;;;;21.37;73.06;100513.13;5054401;28;20420;-62
2021/09/14 05:41:08;;;;;;;9.57;6.30;;;;;;;21.54;72.42;100515.22;5055623;28;20388;-63
2021/09/14 05:43:36;;;;;;;11.65;6.88;;;;;;;21.20;74.40;100537.81;5054259;28;20061;-62
2021/09/14 05:46:04;;;;;;;11.45;6.43;;;;;;;21.21;73.90;100552.63;5055572;28;20053;-61
2021/09/14 05:48:34;;;;;;;9.52;6.68;;;;;;;21.47;72.31;100555.22;5037766;28;20076;-63
2021/09/14 05:51:03;;;;;;;11.63;7.03;;;;;;;21.55;71.89;100561.69;5060693;28;20045;-65
2021/09/14 05:53:37;;;;;;;13.52;8.45;;;;;;;21.58;71.83;100564.50;5070949;28;20061;-66
2021/09/14 05:56:04;;;;;;;10.55;7.00;;;;;;;21.55;71.91;100579.28;5071037;28;20049;-66
2021/09/14 05:58:32;;;;;;;9.90;7.35;;;;;;;21.30;73.28;100597.94;5054094;28;20072;-67
2021/09/14 06:01:00;;;;;;;11.07;7.85;;;;;;;21.36;72.84;100620.81;5071871;28;20053;-67
2021/09/14 06:03:29;;;;;;;9.95;7.60;;;;;;;21.63;71.83;100620.19;5070468;28;20044;-66
2021/09/14 06:05:58;;;;;;;13.43;7.55;;;;;;;21.59;71.75;100624.16;5054123;28;20060;-65
2021/09/14 06:08:27;;;;;;;12.57;7.57;;;;;;;21.32;73.07;100628.38;5053206;28;20447;-66
2021/09/14 06:10:55;;;;;;;11.23;6.47;;;;;;;21.62;71.43;100624.19;5054639;28;20060;-67
2021/09/14 06:13:24;;;;;;;12.52;6.72;;;;;;;21.50;72.35;100620.88;5063576;28;20064;-67
2021/09/14 06:15:52;;;;;;;8.95;5.97;;;;;;;21.47;72.33;100611.28;5073980;28;20075;-66
2021/09/14 06:18:23;;;;;;;15.02;10.20;;;;;;;21.36;73.16;100615.97;5074766;28;20052;-66
2021/09/14 06:20:52;;;;;;;9.75;5.68;;;;;;;21.46;72.53;100625.69;5089868;28;20071;-62
2021/09/14 06:23:19;;;;;;;13.43;6.25;;;;;;;21.10;74.44;100628.19;5071606;28;20041;-62
2021/09/14 06:25:49;;;;;;;9.82;5.60;;;;;;;21.22;74.16;100625.09;5037102;28;20447;-65
2021/09/14 06:28:16;;;;;;;9.05;5.47;;;;;;;21.21;74.19;100620.69;5053764;28;20492;-66
2021/09/14 06:30:44;;;;;;;13.82;5.68;;;;;;;21.04;75.58;100620.53;5053021;28;20053;-66
2021/09/14 06:33:14;;;;;;;8.77;5.57;;;;;;;21.19;74.80;100619.44;5049751;28;20325;-61
2021/09/14 06:35:48;;;;;;;9.77;5.40;;;;;;;21.29;74.66;100627.13;5052688;28;20084;-62
2021/09/14 06:38:24;;;;;;;10.20;5.60;;;;;;;21.44;74.00;100639.28;5053406;28;20060;-65
2021/09/14 06:40:53;;;;;;;10.00;5.40;;;;;;;21.40;74.33;100650.44;5054162;28;20056;-63
2021/09/14 06:43:25;;;;;;;11.88;5.18;;;;;;;21.44;74.53;100656.09;5056339;28;20571;-63
2021/09/14 06:46:18;;;;;;;12.77;5.75;;;;;;;21.59;74.27;100669.00;5052705;28;20052;-66
2021/09/14 06:48:55;;;;;;;10.18;5.22;;;;;;;21.72;73.25;100654.31;5052626;28;20055;-67
2021/09/14 06:51:22;;;;;;;13.38;5.97;;;;;;;21.64;73.90;100654.63;5053718;28;20381;-63
2021/09/14 06:53:49;;;;;;;7.90;5.78;;;;;;;21.40;75.01;100658.03;5054401;28;20045;-63
2021/09/14 06:56:17;;;;;;;12.52;8.20;;;;;;;21.17;77.28;100663.84;5070089;28;20041;-64
2021/09/14 06:58:46;;;;;;;11.60;6.35;;;;;;;21.40;75.35;100669.25;5052442;28;20093;-65
2021/09/14 07:01:20;;;;;;;11.30;6.22;;;;;;;21.52;75.24;100668.94;5054655;28;20607;-65
2021/09/14 07:03:49;;;;;;;12.60;6.93;;;;;;;21.19;77.98;100665.09;5043408;28;20060;-63
2021/09/14 07:06:17;;;;;;;12.10;8.13;;;;;;;20.23;84.56;100677.50;5044327;28;20424;-63
2021/09/14 07:08:44;;;;;;;14.10;7.25;;;;;;;20.66;81.69;100662.91;5037567;28;20041;-63
2021/09/14 07:11:12;;;;;;;19.92;8.75;;;;;;;20.78;81.91;100638.22;5054592;28;20053;-64
2021/09/14 07:13:39;;;;;;;18.85;7.07;;;;;;;20.75;81.60;100607.38;5064208;28;20071;-62
2021/09/14 07:16:07;;;;;;;16.95;7.72;;;;;;;20.89;81.37;100576.72;5059324;28;20049;-63
2021/09/14 07:18:38;;;;;;;12.63;7.25;;;;;;;20.63;83.21;100563.69;5054104;28;20052;-63
2021/09/14 07:21:05;;;;;;;16.30;7.20;;;;;;;20.59;84.03;100573.25;5054432;28;20053;-62
2021/09/14 07:23:33;;;;;;;14.25;7.00;;;;;;;20.55;84.64;100573.22;5043676;28;20515;-62
2021/09/14 07:26:00;;;;;;;14.45;6.25;;;;;;;20.81;83.28;100583.47;5054533;28;20053;-63
2021/09/14 07:28:28;;;;;;;13.68;6.50;;;;;;;21.11;81.13;100584.19;5052644;28;20045;-62
2021/09/14 07:30:56;;;;;;;15.65;6.85;;;;;;;21.00;82.67;100588.88;5052876;28;20547;-64
2021/09/14 07:33:23;;;;;;;14.63;6.88;;;;;;;20.98;82.97;100585.63;5053975;28;20048;-63
2021/09/14 07:35:51;;;;;;;17.75;7.18;;;;;;;20.91;83.39;100593.94;5052512;28;20040;-65
2021/09/14 07:38:18;;;;;;;13.77;7.30;;;;;;;20.74;85.38;100603.81;5054010;28;20071;-65
2021/09/14 07:40:45;;;;;;;14.15;7.30;;;;;;;21.07;83.09;100600.94;5040339;28;20049;-66
2021/09/14 07:43:12;;;;;;;20.10;7.65;;;;;;;20.54;86.51;100599.56;5034251;28;20037;-64
2021/09/14 07:45:40;;;;;;;12.85;6.72;;;;;;;20.73;86.54;100609.78;5053709;28;20052;-65
2021/09/14 07:48:07;;;;;;;11.77;7.65;;;;;;;20.42;87.84;100607.41;5053935;28;20056;-65
2021/09/14 07:50:34;;;;;;;13.07;6.55;;;;;;;21.07;84.60;100611.34;5056203;28;20053;-64
2021/09/14 07:53:03;;;;;;;12.35;7.43;;;;;;;21.40;82.76;100627.22;5053537;28;20047;-64
2021/09/14 07:55:30;;;;;;;9.32;5.95;;;;;;;21.78;80.55;100615.50;5052825;28;20052;-64
2021/09/14 07:57:57;;;;;;;12.50;6.60;;;;;;;21.92;79.06;100621.19;5051226;28;20049;-64
2021/09/14 08:00:25;;;;;;;14.93;6.32;;;;;;;22.06;78.68;100613.69;5045690;28;20491;-64
2021/09/14 08:02:56;;;;;;;13.70;6.00;;;;;;;22.10;77.97;100606.09;5053272;28;20071;-65
2021/09/14 08:05:25;;;;;;;10.98;6.47;;;;;;;22.27;77.26;100613.78;5054326;28;20056;-65
2021/09/14 08:07:52;;;;;;;21.40;14.60;;;;;;;22.22;77.26;100614.16;5052476;28;20041;-64
2021/09/14 08:10:20;;;;;;;16.40;7.28;;;;;;;22.25;78.02;100613.38;5053214;28;20056;-63
2021/09/14 08:12:47;;;;;;;11.27;7.05;;;;;;;22.26;77.60;100614.94;5056877;28;20045;-63
2021/09/14 08:15:15;;;;;;;16.08;7.18;;;;;;;22.31;77.36;100623.03;5041023;28;20049;-62
2021/09/14 08:17:42;;;;;;;10.43;6.20;;;;;;;22.42;76.46;100633.47;5055365;28;20053;-63
2021/09/14 08:20:10;;;;;;;11.85;7.00;;;;;;;22.42;76.71;100644.72;5056412;28;20484;-63
2021/09/14 08:22:37;;;;;;;24.15;7.75;;;;;;;22.31;77.45;100648.28;5055517;28;20045;-63
2021/09/14 08:25:05;;;;;;;16.00;7.45;;;;;;;22.35;77.36;100649.06;5070731;28;20581;-64
2021/09/14 08:27:32;;;;;;;22.95;7.60;;;;;;;22.50;76.86;100644.34;5057018;28;20056;-64
2021/09/14 08:30:02;;;;;;;16.60;7.43;;;;;;;22.45;77.24;100636.31;5056664;28;20067;-63
2021/09/14 08:32:29;;;;;;;16.73;6.95;;;;;;;22.48;77.01;100641.13;5054262;28;20053;-63
2021/09/14 08:34:57;;;;;;;15.60;6.93;;;;;;;22.41;77.43;100641.09;5056003;28;20045;-63
2021/09/14 08:37:26;;;;;;;11.23;7.00;;;;;;;22.45;77.20;100643.91;5038385;28;20401;-64
2021/09/14 08:39:53;;;;;;;13.10;7.13;;;;;;;22.55;77.84;100640.38;5048631;28;20044;-63
2021/09/14 08:42:21;;;;;;;19.42;8.98;;;;;;;22.62;76.85;100649.63;5057153;28;20052;-63
2021/09/14 08:44:50;;;;;;;13.50;8.15;;;;;;;22.90;75.68;100657.31;5071723;28;20049;-64
2021/09/14 08:47:21;;;;;;;16.77;8.52;;;;;;;22.72;76.25;100671.31;5056643;28;20526;-62
2021/09/14 08:49:49;;;;;;;18.25;11.43;;;;;;;22.63;77.13;100673.69;5037690;28;20069;-63
2021/09/14 08:52:16;;;;;;;19.85;7.93;;;;;;;22.55;77.68;100671.25;5054180;28;20044;-64
2021/09/14 08:54:43;;;;;;;14.23;7.15;;;;;;;22.57;77.51;100671.66;5056322;28;20060;-65
2021/09/14 08:57:11;;;;;;;18.92;9.80;;;;;;;22.80;76.96;100674.94;5056126;28;20060;-65
2021/09/14 08:59:49;;;;;;;34.05;23.75;;;;;;;22.85;76.41;100664.13;5057055;28;20174;-65
2021/09/14 09:02:18;;;;;;;14.50;7.28;;;;;;;22.88;76.55;100668.16;5057940;28;20052;-65
2021/09/14 09:05:03;;;;;;;15.85;8.27;;;;;;;22.97;75.94;100666.56;5056017;28;20059;-66
2021/09/14 09:07:34;;;;;;;13.70;7.30;;;;;;;22.60;77.96;100668.06;5053020;28;20599;-64
2021/09/14 09:10:09;;;;;;;14.52;7.72;;;;;;;22.70;77.57;100670.13;5057173;28;20061;-65
2021/09/14 09:12:47;;;;;;;12.23;7.05;;;;;;;22.71;77.45;100669.72;5059209;28;20048;-65
2021/09/14 09:15:21;;;;;;;16.25;8.07;;;;;;;22.76;77.20;100669.31;5077012;28;20064;-65
2021/09/14 09:18:12;;;;;;;20.23;7.68;;;;;;;22.71;78.26;100661.28;5076395;28;20048;-64
2021/09/14 09:20:41;;;;;;;14.93;7.32;;;;;;;22.91;77.08;100658.94;5059126;28;20044;-66
2021/09/14 09:23:17;;;;;;;12.93;6.43;;;;;;;23.01;76.26;100649.72;5041410;28;20570;-65
2021/09/14 09:25:44;;;;;;;24.08;7.20;;;;;;;22.83;77.34;100646.06;5060173;28;20156;-65
2021/09/14 09:28:16;;;;;;;14.57;6.75;;;;;;;22.96;76.50;100655.75;5054174;28;20056;-67
2021/09/14 09:30:53;;;;;;;14.60;6.82;;;;;;;23.00;77.00;100656.53;5038111;28;20052;-64
2021/09/14 09:33:28;;;;;;;12.77;6.70;;;;;;;22.93;77.58;100657.31;5052756;28;20056;-65
2021/09/14 09:36:00;;;;;;;16.63;6.95;;;;;;;23.18;76.15;100661.00;5055338;28;20045;-64
2021/09/14 09:38:28;;;;;;;14.02;6.97;;;;;;;22.65;79.04;100665.66;5054688;28;20071;-65
2021/09/14 09:40:56;;;;;;;14.40;7.47;;;;;;;23.13;77.86;100657.78;5055908;28;20066;-65
2021/09/14 09:43:30;;;;;;;14.07;7.28;;;;;;;23.10;76.85;100656.53;5053696;28;20053;-65
2021/09/14 09:46:07;;;;;;;15.57;6.88;;;;;;;23.09;77.01;100654.94;5056422;28;20053;-65
2021/09/14 09:48:36;;;;;;;16.33;8.00;;;;;;;22.91;78.04;100645.69;5054334;28;20063;-66
2021/09/14 09:51:06;;;;;;;18.17;8.02;;;;;;;23.11;76.62;100637.69;5053504;28;20391;-62
2021/09/14 09:53:34;;;;;;;21.73;7.95;;;;;;;23.01;77.60;100641.28;5055883;28;20055;-64
2021/09/14 09:56:02;;;;;;;20.95;7.32;;;;;;;23.36;75.77;100641.38;5055114;28;20049;-67
2021/09/14 09:58:30;;;;;;;15.70;6.72;;;;;;;23.40;75.68;100642.94;5055896;28;20645;-65
2021/09/14 10:01:10;;;;;;;12.02;6.43;;;;;;;23.52;75.01;100647.34;5036309;28;20056;-64
2021/09/14 10:03:45;;;;;;;19.30;8.02;;;;;;;22.89;78.31;100647.28;5055946;28;20044;-66
2021/09/14 10:06:14;;;;;;;13.63;7.25;;;;;;;22.70;79.62;100642.03;5053827;28;20128;-64
2021/09/14 10:08:49;;;;;;;14.52;7.22;;;;;;;22.80;79.39;100639.25;5071510;28;20060;-65
2021/09/14 10:11:24;;;;;;;11.55;6.20;;;;;;;23.36;76.77;100650.56;5068422;28;20044;-64
2021/09/14 10:14:05;;;;;;;15.27;6.50;;;;;;;23.61;74.94;100644.94;5055379;28;20048;-66
2021/09/14 10:16:35;;;;;;;37.08;9.27;;;;;;;23.63;74.97;100656.59;5070079;28;20056;-68
2021/09/14 10:19:12;;;;;;;39.55;9.98;;;;;;;23.56;75.46;100662.22;5054209;28;20057;-67
2021/09/14 10:21:44;;;;;;;25.38;8.43;;;;;;;23.73;74.77;100660.63;5069648;28;20049;-65
2021/09/14 10:24:23;;;;;;;17.48;7.60;;;;;;;23.72;75.01;100659.00;5052603;28;20037;-66
2021/09/14 10:27:10;;;;;;;19.92;7.15;;;;;;;23.82;74.46;100653.38;5054565;28;20060;-66
2021/09/14 10:29:39;;;;;;;15.82;7.25;;;;;;;23.90;74.34;100654.94;5070275;28;20053;-65
2021/09/14 10:32:11;;;;;;;18.85;7.65;;;;;;;23.89;74.31;100661.78;5053530;28;20049;-66
2021/09/14 10:34:42;;;;;;;15.60;7.13;;;;;;;23.96;73.96;100661.78;5053208;28;20044;-66
2021/09/14 10:37:11;;;;;;;15.35;7.28;;;;;;;23.98;74.09;100658.56;5054987;28;20053;-65
2021/09/14 10:39:43;;;;;;;17.95;8.00;;;;;;;24.12;73.62;100661.38;5055229;28;20057;-65
2021/09/14 10:42:22;;;;;;;26.17;8.23;;;;;;;24.37;72.99;100659.28;5053567;28;20057;-63
2021/09/14 10:44:51;;;;;;;25.77;8.40;;;;;;;24.25;73.24;100660.53;5053632;28;20048;-66
2021/09/14 10:47:21;;;;;;;17.67;7.30;;;;;;;24.38;71.88;100647.63;5053588;28;20063;-64
2021/09/14 10:50:00;;;;;;;13.87;8.37;;;;;;;24.38;71.86;100653.25;5068764;28;20053;-66
2021/09/14 10:52:39;;;;;;;16.63;7.90;;;;;;;24.56;71.07;100650.34;5053083;28;20056;-64
2021/09/14 10:55:10;;;;;;;14.45;6.93;;;;;;;24.52;71.49;100641.91;5055088;28;20306;-66
2021/09/14 10:57:46;;;;;;;16.85;7.85;;;;;;;24.06;72.16;100652.53;5074756;28;20048;-65
2021/09/14 11:00:16;;;;;;;18.55;9.57;;;;;;;23.97;73.96;100654.16;5052260;28;20045;-66
2021/09/14 11:02:58;;;;;;;18.60;8.15;;;;;;;24.03;74.13;100649.72;5057273;28;20060;-66
2021/09/14 11:05:30;;;;;;;18.27;7.80;;;;;;;24.13;74.01;100643.28;5053557;28;20045;-66
2021/09/14 11:08:02;;;;;;;16.35;7.07;;;;;;;24.27;72.88;100640.41;5053894;28;20048;-65
2021/09/14 11:10:34;;;;;;;14.40;7.50;;;;;;;24.29;72.85;100644.44;5061598;28;20420;-66
2021/09/14 11:13:03;;;;;;;18.42;6.72;;;;;;;24.29;73.18;100638.78;5048170;28;20407;-65
2021/09/14 11:15:30;;;;;;;12.35;5.97;;;;;;;24.18;74.00;100631.59;5056937;28;20048;-66
2021/09/14 11:17:57;;;;;;;10.85;6.57;;;;;;;24.38;72.81;100635.53;5036470;28;20052;-67
2021/09/14 11:20:30;;;;;;;18.92;6.82;;;;;;;24.59;72.08;100635.44;5052135;28;20048;-67
2021/09/14 11:22:59;;;;;;;14.63;5.85;;;;;;;24.59;71.83;100637.44;5055345;28;20045;-67
2021/09/14 11:25:28;;;;;;;12.30;6.80;;;;;;;24.71;70.87;100631.38;5065136;28;20523;-67
2021/09/14 11:28:13;;;;;;;14.90;7.68;;;;;;;24.80;71.08;100637.38;5053167;28;20052;-67
2021/09/14 11:30:52;;;;;;;17.83;6.85;;;;;;;24.86;69.81;100625.25;5051055;28;20162;-66
2021/09/14 11:33:19;;;;;;;15.63;6.75;;;;;;;24.79;70.51;100627.31;5060829;28;20048;-67
2021/09/14 11:35:46;;;;;;;13.23;6.85;;;;;;;24.84;70.76;100638.16;5052317;28;20044;-66
2021/09/14 11:38:15;;;;;;;11.93;5.20;;;;;;;25.23;68.91;100636.66;5052811;28;20404;-67
2021/09/14 11:40:51;;;;;;;11.20;5.28;;;;;;;25.33;68.32;100623.72;5054606;28;20049;-67
2021/09/14 11:43:26;;;;;;;16.23;6.03;;;;;;;25.43;67.46;100628.50;5053884;28;20052;-67
2021/09/14 11:45:54;;;;;;;13.75;5.88;;;;;;;25.44;67.81;100624.44;5062877;28;20056;-68
2021/09/14 11:48:22;;;;;;;13.13;5.70;;;;;;;25.34;67.66;100631.75;5070105;28;20562;-66
2021/09/14 11:51:02;;;;;;;15.65;6.20;;;;;;;25.24;67.64;100629.84;5046555;28;20049;-65
2021/09/14 11:53:29;;;;;;;;;;;;;;;24.64;69.38;100631.38;5053721;28;20052;-67
2021/09/14 11:55:57;;;;;;;14.85;6.45;;;;;;;24.82;69.23;100623.69;5039236;28;19921;-66
2021/09/14 11:58:29;;;;;;;16.35;5.75;;;;;;;25.09;68.68;100617.03;5054098;28;20045;-65
2021/09/14 12:01:06;;;;;;;11.43;5.47;;;;;;;25.26;68.41;100618.91;5056658;28;20045;-64
2021/09/14 12:03:56;;;;;;;13.55;5.40;;;;;;;25.44;67.06;100610.34;5051460;28;20404;-66
2021/09/14 12:06:32;;;;;;;14.48;6.13;;;;;;;25.65;65.20;100612.19;5067662;28;20057;-45
2021/09/14 12:09:01;;;;;;;9.75;4.95;;;;;;;25.68;65.04;100606.50;5051478;28;20049;-47
2021/09/14 12:11:33;;;;;;;14.30;5.17;;;;;;;25.59;66.05;100611.84;5053307;28;20093;-53
2021/09/14 12:14:05;;;;;;;12.90;5.40;;;;;;;25.40;66.44;100609.59;5066978;28;20507;-48
2021/09/14 12:16:39;;;;;;;11.00;5.43;;;;;;;25.11;67.50;100606.16;5047135;28;20057;-48
2021/09/14 12:19:12;;;;;;;15.00;5.28;;;;;;;24.93;67.70;100613.16;5056676;28;20049;-49
2021/09/14 12:21:39;;;;;;;13.55;4.85;;;;;;;25.47;66.26;100604.66;5057514;28;20053;-48
2021/09/14 12:24:10;;;;;;;14.85;5.10;;;;;;;25.71;66.13;100600.03;5055714;28;20072;-53
2021/09/14 12:26:41;;;;;;;9.05;5.10;;;;;;;25.95;64.57;100596.13;5057400;28;20052;-49
2021/09/14 12:29:10;;;;;;;14.40;5.18;;;;;;;26.04;63.36;100587.19;5056391;28;20045;-53